createdAt,value
2022-12-31T00:00:11.264Z,4.46
2022-12-31T00:00:46.975Z,4.50
2022-12-31T00:01:19.970Z,4.39
2022-12-31T00:01:51.846Z,4.30
2022-12-31T00:02:23.940Z,4.32
2022-12-31T00:02:56.042Z,4.17
2022-12-31T00:03:28.185Z,4.08
2022-12-31T00:04:00.171Z,4.11
2022-12-31T00:04:32.049Z,4.20
2022-12-31T00:05:04.529Z,4.24
2022-12-31T00:05:37.147Z,4.29
2022-12-31T00:06:16.101Z,4.27
2022-12-31T00:06:48.239Z,4.33
2022-12-31T00:07:20.122Z,4.14
2022-12-31T00:07:52.064Z,4.10
2022-12-31T00:08:24.026Z,4.23
2022-12-31T00:08:58.143Z,4.17
2022-12-31T00:09:29.999Z,4.11
2022-12-31T00:10:02.770Z,4.08
2022-12-31T00:10:41.249Z,4.03
2022-12-31T00:11:14.231Z,4.02
2022-12-31T00:11:46.058Z,3.90
2022-12-31T00:12:17.925Z,3.94
2022-12-31T00:12:50.141Z,4.02
2022-12-31T00:13:22.027Z,4.17
2022-12-31T00:13:54.812Z,4.18
2022-12-31T00:14:26.698Z,4.03
2022-12-31T00:14:58.582Z,3.94
2022-12-31T00:15:30.757Z,4.02
2022-12-31T00:16:12.530Z,4.05
2022-12-31T00:16:44.852Z,4.10
2022-12-31T00:17:16.861Z,4.08
2022-12-31T00:17:48.862Z,4.11
2022-12-31T00:18:20.769Z,4.15
2022-12-31T00:18:55.449Z,4.10
2022-12-31T00:19:27.286Z,4.03
2022-12-31T00:19:59.111Z,3.99
2022-12-31T00:20:31.278Z,3.97
2022-12-31T00:21:10.087Z,4.07
2022-12-31T00:21:43.517Z,4.28
2022-12-31T00:22:15.697Z,4.31
2022-12-31T00:22:47.513Z,4.24
2022-12-31T00:23:19.349Z,4.25
2022-12-31T00:23:52.692Z,4.30
2022-12-31T00:24:24.584Z,4.21
2022-12-31T00:24:56.419Z,4.23
2022-12-31T00:25:28.325Z,4.24
2022-12-31T00:26:04.806Z,4.22
2022-12-31T00:26:36.760Z,4.22
2022-12-31T00:27:08.606Z,4.29
2022-12-31T00:27:40.729Z,4.34
2022-12-31T00:28:12.555Z,4.27
2022-12-31T00:28:45.137Z,4.26
2022-12-31T00:29:16.959Z,4.24
2022-12-31T00:29:48.779Z,4.28
2022-12-31T00:30:20.665Z,4.27
2022-12-31T00:30:52.577Z,4.24
2022-12-31T00:31:29.887Z,4.31
2022-12-31T00:32:01.745Z,4.32
2022-12-31T00:32:33.610Z,4.40
2022-12-31T00:33:05.754Z,4.31
2022-12-31T00:33:38.337Z,4.28
2022-12-31T00:34:10.171Z,4.30
2022-12-31T00:34:42.030Z,4.32
2022-12-31T00:35:13.919Z,4.32
2022-12-31T00:35:45.741Z,4.38
2022-12-31T00:36:23.721Z,4.47
2022-12-31T00:36:55.579Z,4.42
2022-12-31T00:37:27.541Z,4.42
2022-12-31T00:37:59.409Z,4.47
2022-12-31T00:38:31.822Z,4.48
2022-12-31T00:39:05.966Z,4.37
2022-12-31T00:39:37.835Z,4.40
2022-12-31T00:40:10.569Z,4.42
2022-12-31T00:40:42.398Z,4.51
2022-12-31T00:41:16.055Z,4.57
2022-12-31T00:41:47.880Z,4.55
2022-12-31T00:42:19.748Z,4.51
2022-12-31T00:42:51.672Z,4.45
2022-12-31T00:43:23.517Z,4.49
2022-12-31T00:43:55.847Z,4.39
2022-12-31T00:44:27.721Z,4.31
2022-12-31T00:44:59.590Z,4.34
2022-12-31T00:45:31.437Z,4.40
2022-12-31T00:46:03.828Z,4.48
2022-12-31T00:47:09.086Z,4.61
2022-12-31T00:47:40.967Z,4.64
2022-12-31T00:48:12.812Z,4.68
2022-12-31T00:48:44.854Z,4.71
2022-12-31T00:49:17.158Z,4.69
2022-12-31T00:49:49.249Z,4.70
2022-12-31T00:50:21.130Z,4.83
2022-12-31T00:50:54.209Z,4.87
2022-12-31T00:51:27.814Z,4.87
2022-12-31T00:51:59.907Z,4.84
2022-12-31T00:52:31.759Z,4.71
2022-12-31T00:53:03.588Z,4.72
2022-12-31T00:53:35.716Z,4.65
2022-12-31T00:54:08.575Z,4.52
2022-12-31T00:54:40.702Z,4.61
2022-12-31T00:55:12.645Z,4.64
2022-12-31T00:55:44.617Z,4.72
2022-12-31T00:56:19.382Z,4.73
2022-12-31T00:56:51.226Z,4.75
2022-12-31T00:57:23.085Z,4.61
2022-12-31T00:57:54.922Z,4.66
2022-12-31T00:58:27.168Z,4.66
2022-12-31T00:59:00.191Z,4.57
2022-12-31T00:59:32.069Z,4.59
2022-12-31T01:00:07.279Z,4.61
2022-12-31T01:00:39.644Z,4.69
2022-12-31T01:01:15.059Z,4.78
2022-12-31T01:01:47.136Z,4.77
2022-12-31T01:02:19.283Z,4.71
2022-12-31T01:02:51.317Z,4.71
2022-12-31T01:03:23.613Z,4.76
2022-12-31T01:03:59.699Z,4.81
2022-12-31T01:04:31.542Z,4.72
2022-12-31T01:05:03.440Z,4.64
2022-12-31T01:05:36.531Z,4.62
2022-12-31T01:06:08.680Z,4.67
2022-12-31T01:06:41.722Z,4.68
2022-12-31T01:07:13.568Z,4.71
2022-12-31T01:07:45.463Z,4.75
2022-12-31T01:08:18.329Z,4.81
2022-12-31T01:08:51.058Z,4.86
2022-12-31T01:09:22.915Z,4.90
2022-12-31T01:09:54.864Z,4.82
2022-12-31T01:10:45.258Z,4.80
2022-12-31T01:11:24.023Z,4.78
2022-12-31T01:11:56.003Z,4.77
2022-12-31T01:12:27.889Z,4.78
2022-12-31T01:12:59.820Z,4.78
2022-12-31T01:13:31.661Z,4.82
2022-12-31T01:14:21.390Z,4.92
2022-12-31T01:14:53.246Z,4.83
2022-12-31T01:15:25.223Z,4.90
2022-12-31T01:15:57.109Z,4.78
2022-12-31T01:16:37.130Z,4.59
2022-12-31T01:17:09.075Z,4.58
2022-12-31T01:17:40.915Z,4.59
2022-12-31T01:18:13.555Z,4.57
2022-12-31T01:18:45.964Z,4.61
2022-12-31T01:19:21.596Z,4.66
2022-12-31T01:19:53.615Z,4.74
2022-12-31T01:20:25.527Z,4.68
2022-12-31T01:21:03.355Z,4.76
2022-12-31T01:21:37.240Z,4.81
2022-12-31T01:22:09.119Z,4.78
2022-12-31T01:22:40.987Z,4.78
2022-12-31T01:23:12.938Z,4.83
2022-12-31T01:23:45.595Z,4.89
2022-12-31T01:24:17.949Z,4.94
2022-12-31T01:24:49.811Z,4.89
2022-12-31T01:25:21.756Z,4.87
2022-12-31T01:25:53.594Z,4.74
2022-12-31T01:26:25.747Z,4.73
2022-12-31T01:26:58.044Z,4.82
2022-12-31T01:27:30.906Z,4.77
2022-12-31T01:28:03.583Z,4.75
2022-12-31T01:28:36.166Z,4.85
2022-12-31T01:29:09.448Z,4.89
2022-12-31T01:29:41.300Z,4.83
2022-12-31T01:30:13.383Z,4.83
2022-12-31T01:30:45.259Z,4.82
2022-12-31T01:31:19.339Z,4.83
2022-12-31T01:31:51.300Z,4.85
2022-12-31T01:32:23.449Z,4.88
2022-12-31T01:32:55.357Z,4.92
2022-12-31T01:33:27.229Z,4.97
2022-12-31T01:33:59.143Z,5.01
2022-12-31T01:34:31.051Z,5.01
2022-12-31T01:35:02.939Z,5.03
2022-12-31T01:35:36.170Z,4.99
2022-12-31T01:36:21.731Z,5.06
2022-12-31T01:36:57.046Z,5.07
2022-12-31T01:37:29.244Z,4.93
2022-12-31T01:38:01.157Z,4.89
2022-12-31T01:38:34.375Z,4.87
2022-12-31T01:39:08.482Z,4.86
2022-12-31T01:39:40.311Z,4.89
2022-12-31T01:40:12.601Z,4.85
2022-12-31T01:40:44.597Z,4.92
2022-12-31T01:41:21.881Z,4.99
2022-12-31T01:41:53.739Z,5.04
2022-12-31T01:42:25.582Z,5.09
2022-12-31T01:42:58.470Z,5.10
2022-12-31T01:44:11.483Z,5.14
2022-12-31T01:44:48.831Z,5.15
2022-12-31T01:45:20.740Z,5.09
2022-12-31T01:45:54.590Z,5.11
2022-12-31T01:46:55.187Z,4.94
2022-12-31T01:47:37.638Z,4.91
2022-12-31T01:48:14.149Z,4.81
2022-12-31T01:48:50.962Z,4.82
2022-12-31T01:49:54.663Z,4.91
2022-12-31T01:50:33.716Z,4.99
2022-12-31T01:51:08.861Z,5.07
2022-12-31T01:51:43.184Z,5.12
2022-12-31T01:52:18.073Z,5.14
2022-12-31T01:52:58.405Z,5.09
2022-12-31T01:53:31.074Z,5.10
2022-12-31T01:54:07.114Z,5.15
2022-12-31T01:54:44.721Z,5.15
2022-12-31T01:55:29.546Z,5.09
2022-12-31T01:56:02.810Z,5.14
2022-12-31T01:56:36.065Z,5.16
2022-12-31T01:57:09.513Z,5.08
2022-12-31T01:57:42.994Z,5.01
2022-12-31T01:58:19.833Z,5.08
2022-12-31T01:58:55.852Z,5.04
2022-12-31T01:59:29.231Z,5.09
2022-12-31T02:00:02.527Z,5.03
2022-12-31T02:00:36.960Z,4.89
2022-12-31T02:01:12.238Z,4.92
2022-12-31T02:01:46.759Z,5.10
2022-12-31T02:02:18.939Z,5.09
2022-12-31T02:02:51.526Z,5.12
2022-12-31T02:03:26.176Z,5.09
2022-12-31T02:04:00.800Z,4.93
2022-12-31T02:04:32.783Z,4.93
2022-12-31T02:05:13.742Z,4.96
2022-12-31T02:05:54.558Z,4.96
2022-12-31T02:06:37.624Z,4.98
2022-12-31T02:07:11.353Z,4.98
2022-12-31T02:07:43.893Z,5.04
2022-12-31T02:08:16.278Z,5.07
2022-12-31T02:08:48.638Z,5.10
2022-12-31T02:09:21.068Z,5.01
2022-12-31T02:09:54.180Z,4.96
2022-12-31T02:10:26.264Z,5.00
2022-12-31T02:10:58.098Z,5.04
2022-12-31T02:11:36.398Z,5.06
2022-12-31T02:12:09.692Z,5.04
2022-12-31T02:12:41.808Z,5.09
2022-12-31T02:13:15.039Z,5.06
2022-12-31T02:13:46.982Z,5.01
2022-12-31T02:14:22.979Z,4.96
2022-12-31T02:14:55.992Z,4.95
2022-12-31T02:15:38.171Z,4.95
2022-12-31T02:16:21.288Z,5.11
2022-12-31T02:17:27.609Z,5.07
2022-12-31T02:18:14.185Z,4.90
2022-12-31T02:19:04.897Z,4.92
2022-12-31T02:19:45.570Z,4.96
2022-12-31T02:20:49.151Z,4.98
2022-12-31T02:22:00.857Z,5.03
2022-12-31T02:22:54.537Z,4.97
2022-12-31T02:23:55.647Z,5.10
2022-12-31T02:24:57.766Z,5.08
2022-12-31T02:25:50.965Z,5.12
2022-12-31T02:26:44.245Z,5.08
2022-12-31T02:28:03.035Z,5.15
2022-12-31T02:28:49.456Z,5.03
2022-12-31T02:29:21.231Z,4.88
2022-12-31T02:29:58.976Z,4.71
2022-12-31T02:30:32.758Z,4.71
2022-12-31T02:31:26.313Z,4.60
2022-12-31T02:32:04.226Z,4.65
2022-12-31T02:32:51.199Z,4.60
2022-12-31T02:33:36.206Z,4.72
2022-12-31T02:34:26.660Z,4.63
2022-12-31T02:35:17.980Z,4.62
2022-12-31T02:35:55.338Z,4.64
2022-12-31T02:36:37.956Z,4.74
2022-12-31T02:37:14.796Z,4.75
2022-12-31T02:37:50.316Z,4.75
2022-12-31T02:38:31.215Z,4.74
2022-12-31T02:39:06.101Z,4.67
2022-12-31T02:39:39.437Z,4.67
2022-12-31T02:40:15.979Z,4.81
2022-12-31T02:40:48.432Z,4.76
2022-12-31T02:41:39.741Z,4.79
2022-12-31T02:42:12.338Z,4.82
2022-12-31T02:42:45.563Z,4.89
2022-12-31T02:43:19.225Z,4.73
2022-12-31T02:43:51.092Z,4.68
2022-12-31T02:44:25.014Z,4.67
2022-12-31T02:44:57.229Z,4.76
2022-12-31T02:45:40.398Z,4.85
2022-12-31T02:46:25.912Z,4.87
2022-12-31T02:47:09.823Z,4.85
2022-12-31T02:48:09.936Z,4.87
2022-12-31T02:49:03.435Z,4.89
2022-12-31T02:49:56.878Z,4.96
2022-12-31T02:50:58.144Z,4.96
2022-12-31T02:52:02.323Z,4.96
2022-12-31T02:52:48.937Z,5.02
2022-12-31T02:53:29.437Z,5.06
2022-12-31T02:54:10.071Z,5.08
2022-12-31T02:54:54.136Z,5.11
2022-12-31T02:55:31.175Z,5.11
2022-12-31T02:56:16.533Z,5.07
2022-12-31T02:57:07.012Z,5.08
2022-12-31T02:57:58.057Z,5.11
2022-12-31T02:59:00.518Z,5.07
2022-12-31T02:59:55.945Z,4.95
2022-12-31T03:00:51.080Z,4.92
2022-12-31T03:02:07.029Z,4.89
2022-12-31T03:02:42.292Z,4.96
2022-12-31T03:03:14.482Z,5.04
2022-12-31T03:03:46.358Z,5.07
2022-12-31T03:04:35.790Z,5.05
2022-12-31T03:05:09.833Z,5.03
2022-12-31T03:05:44.773Z,5.06
2022-12-31T03:06:16.751Z,5.08
2022-12-31T03:06:49.644Z,5.08
2022-12-31T03:07:28.193Z,5.01
2022-12-31T03:08:00.043Z,4.96
2022-12-31T03:08:31.914Z,4.89
2022-12-31T03:09:13.135Z,4.80
2022-12-31T03:09:45.050Z,4.83
2022-12-31T03:10:17.129Z,4.88
2022-12-31T03:10:49.809Z,4.96
2022-12-31T03:11:40.461Z,4.88
2022-12-31T03:12:32.692Z,4.84
2022-12-31T03:13:04.576Z,4.89
2022-12-31T03:13:36.525Z,4.97
2022-12-31T03:14:08.396Z,5.03
2022-12-31T03:14:40.512Z,5.04
2022-12-31T03:15:20.065Z,5.08
2022-12-31T03:15:52.247Z,5.04
2022-12-31T03:16:24.208Z,5.05
2022-12-31T03:16:56.082Z,5.02
2022-12-31T03:17:28.270Z,5.07
2022-12-31T03:18:40.257Z,5.11
2022-12-31T03:19:30.561Z,5.12
2022-12-31T03:20:20.897Z,5.14
2022-12-31T03:21:11.992Z,4.99
2022-12-31T03:22:02.321Z,4.96
2022-12-31T03:22:38.797Z,4.98
2022-12-31T03:23:13.055Z,5.05
2022-12-31T03:23:50.247Z,5.14
2022-12-31T03:24:42.240Z,5.13
2022-12-31T03:25:36.387Z,5.17
2022-12-31T03:26:11.458Z,5.15
2022-12-31T03:26:43.404Z,5.16
2022-12-31T03:27:15.268Z,5.15
2022-12-31T03:27:47.875Z,5.17
2022-12-31T03:28:22.666Z,5.18
2022-12-31T03:28:54.535Z,5.16
2022-12-31T03:29:26.577Z,5.20
2022-12-31T03:29:58.413Z,5.25
2022-12-31T03:30:31.898Z,5.16
2022-12-31T03:31:05.382Z,5.08
2022-12-31T03:31:37.430Z,5.10
2022-12-31T03:32:09.368Z,5.04
2022-12-31T03:32:42.319Z,5.06
2022-12-31T03:33:15.795Z,5.03
2022-12-31T03:33:47.609Z,4.98
2022-12-31T03:34:19.468Z,4.91
2022-12-31T03:34:51.335Z,4.89
2022-12-31T03:35:24.155Z,4.94
2022-12-31T03:35:56.073Z,4.89
2022-12-31T03:36:27.925Z,4.91
2022-12-31T03:36:59.729Z,4.92
2022-12-31T03:37:31.635Z,4.99
2022-12-31T03:38:04.272Z,4.95
2022-12-31T03:38:36.752Z,4.94
2022-12-31T03:39:08.612Z,4.95
2022-12-31T03:39:40.484Z,5.02
2022-12-31T03:40:13.964Z,5.04
2022-12-31T03:40:51.453Z,5.08
2022-12-31T03:41:23.283Z,5.10
2022-12-31T03:41:55.130Z,5.10
2022-12-31T03:42:27.034Z,5.14
2022-12-31T03:42:58.937Z,5.05
2022-12-31T03:43:30.876Z,5.05
2022-12-31T03:44:03.267Z,5.07
2022-12-31T03:44:35.104Z,5.01
2022-12-31T03:45:08.339Z,4.97
2022-12-31T03:45:40.855Z,4.89
2022-12-31T03:46:12.792Z,4.92
2022-12-31T03:46:44.743Z,4.96
2022-12-31T03:47:16.567Z,4.98
2022-12-31T03:47:48.546Z,5.02
2022-12-31T03:48:23.707Z,4.94
2022-12-31T03:48:55.543Z,4.91
2022-12-31T03:49:27.770Z,4.89
2022-12-31T03:49:59.597Z,4.88
2022-12-31T03:50:31.497Z,4.95
2022-12-31T03:51:03.356Z,4.97
2022-12-31T03:51:35.209Z,4.95
2022-12-31T03:52:08.655Z,4.83
2022-12-31T03:52:40.861Z,4.74
2022-12-31T03:53:12.856Z,4.78
2022-12-31T03:53:44.693Z,4.79
2022-12-31T03:54:16.516Z,4.78
2022-12-31T03:54:48.658Z,4.90
2022-12-31T03:55:20.507Z,4.87
2022-12-31T03:55:53.566Z,4.87
2022-12-31T03:56:25.457Z,4.89
2022-12-31T03:57:00.267Z,4.97
2022-12-31T03:57:32.919Z,5.03
2022-12-31T03:58:04.827Z,4.86
2022-12-31T03:58:36.675Z,4.88
2022-12-31T03:59:08.582Z,4.88
2022-12-31T03:59:40.439Z,4.88
2022-12-31T04:00:15.696Z,4.72
2022-12-31T04:00:47.952Z,4.71
2022-12-31T04:01:19.967Z,4.81
2022-12-31T04:01:51.997Z,4.80
2022-12-31T04:02:28.875Z,4.82
2022-12-31T04:03:01.468Z,4.95
2022-12-31T04:03:33.361Z,4.90
2022-12-31T04:04:05.190Z,4.91
2022-12-31T04:04:37.039Z,4.95
2022-12-31T04:05:09.182Z,4.90
2022-12-31T04:05:41.242Z,4.75
2022-12-31T04:06:13.480Z,4.78
2022-12-31T04:06:45.378Z,4.85
2022-12-31T04:07:17.233Z,4.86
2022-12-31T04:07:49.220Z,4.90
2022-12-31T04:08:21.170Z,4.89
2022-12-31T04:08:53.033Z,4.91
2022-12-31T04:09:24.978Z,4.94
2022-12-31T04:09:57.207Z,4.94
2022-12-31T04:10:29.074Z,4.96
2022-12-31T04:11:00.911Z,4.95
2022-12-31T04:11:33.097Z,4.91
2022-12-31T04:12:05.947Z,4.91
2022-12-31T04:12:38.676Z,4.95
2022-12-31T04:13:10.489Z,5.03
2022-12-31T04:13:42.345Z,5.02
2022-12-31T04:14:14.285Z,5.04
2022-12-31T04:14:46.180Z,5.10
2022-12-31T04:15:20.671Z,5.07
2022-12-31T04:15:52.512Z,5.12
2022-12-31T04:16:24.341Z,5.06
2022-12-31T04:16:56.499Z,5.08
2022-12-31T04:17:28.527Z,5.11
2022-12-31T04:18:00.458Z,5.10
2022-12-31T04:18:32.295Z,5.11
2022-12-31T04:19:04.237Z,5.12
2022-12-31T04:19:36.124Z,5.13
2022-12-31T04:20:08.696Z,5.04
2022-12-31T04:20:40.529Z,4.85
2022-12-31T04:21:12.383Z,4.77
2022-12-31T04:21:45.172Z,4.82
2022-12-31T04:22:17.675Z,4.89
2022-12-31T04:22:49.542Z,4.92
2022-12-31T04:23:21.390Z,4.94
2022-12-31T04:23:53.216Z,4.95
2022-12-31T04:24:25.224Z,4.93
2022-12-31T04:24:57.053Z,4.99
2022-12-31T04:25:28.909Z,4.99
2022-12-31T04:26:00.825Z,4.94
2022-12-31T04:26:33.003Z,4.97
2022-12-31T04:27:07.767Z,5.02
2022-12-31T04:27:43.484Z,5.02
2022-12-31T04:28:15.555Z,4.96
2022-12-31T04:28:48.045Z,4.99
2022-12-31T04:29:19.907Z,5.03
2022-12-31T04:29:51.734Z,4.98
2022-12-31T04:30:23.564Z,4.92
2022-12-31T04:30:55.448Z,4.92
2022-12-31T04:31:27.864Z,4.92
2022-12-31T04:31:59.764Z,4.95
2022-12-31T04:32:31.610Z,4.97
2022-12-31T04:33:03.924Z,4.97
2022-12-31T04:33:35.741Z,5.01
2022-12-31T04:34:07.728Z,5.04
2022-12-31T04:34:39.714Z,5.01
2022-12-31T04:35:12.194Z,4.92
2022-12-31T04:35:44.294Z,4.87
2022-12-31T04:36:16.212Z,4.81
2022-12-31T04:36:48.072Z,4.80
2022-12-31T04:37:19.921Z,4.86
2022-12-31T04:37:51.767Z,4.88
2022-12-31T04:38:23.980Z,4.94
2022-12-31T04:38:56.001Z,4.94
2022-12-31T04:39:28.158Z,4.91
2022-12-31T04:40:05.406Z,4.95
2022-12-31T04:40:58.228Z,4.88
2022-12-31T04:41:30.139Z,4.72
2022-12-31T04:42:02.033Z,4.78
2022-12-31T04:42:34.708Z,4.85
2022-12-31T04:43:06.636Z,4.85
2022-12-31T04:43:38.856Z,4.87
2022-12-31T04:44:10.808Z,4.90
2022-12-31T04:44:43.360Z,4.90
2022-12-31T04:45:15.224Z,4.90
2022-12-31T04:45:47.683Z,4.94
2022-12-31T04:46:22.783Z,4.96
2022-12-31T04:46:55.133Z,4.92
2022-12-31T04:47:26.972Z,4.97
2022-12-31T04:47:58.902Z,4.95
2022-12-31T04:48:30.860Z,4.66
2022-12-31T04:49:03.780Z,4.64
2022-12-31T04:49:35.730Z,4.71
2022-12-31T04:50:08.103Z,4.76
2022-12-31T04:50:40.002Z,4.76
2022-12-31T04:51:12.207Z,4.76
2022-12-31T04:51:44.088Z,4.76
2022-12-31T04:52:15.902Z,4.75
2022-12-31T04:52:47.827Z,4.75
2022-12-31T04:53:19.661Z,4.68
2022-12-31T04:53:51.870Z,4.71
2022-12-31T04:54:24.135Z,4.72
2022-12-31T04:54:56.039Z,4.71
2022-12-31T04:55:27.874Z,4.81
2022-12-31T04:55:59.713Z,4.82
2022-12-31T04:56:32.856Z,4.87
2022-12-31T04:57:04.694Z,4.86
2022-12-31T04:57:36.543Z,4.89
2022-12-31T04:58:08.385Z,4.87
2022-12-31T04:58:40.732Z,4.86
2022-12-31T04:59:13.006Z,4.77
2022-12-31T04:59:45.161Z,4.72
2022-12-31T05:00:17.303Z,4.70
2022-12-31T05:00:51.996Z,4.68
2022-12-31T05:01:24.428Z,4.76
2022-12-31T05:01:56.508Z,4.68
2022-12-31T05:02:30.149Z,4.62
2022-12-31T05:03:02.188Z,4.57
2022-12-31T05:03:34.954Z,4.58
2022-12-31T05:04:07.056Z,4.58
2022-12-31T05:04:39.110Z,4.60
2022-12-31T05:05:11.323Z,4.56
2022-12-31T05:05:43.583Z,4.60
2022-12-31T05:06:18.366Z,4.57
2022-12-31T05:06:50.233Z,4.55
2022-12-31T05:07:22.096Z,4.58
2022-12-31T05:07:53.934Z,4.52
2022-12-31T05:08:25.793Z,4.54
2022-12-31T05:08:57.747Z,4.58
2022-12-31T05:09:29.774Z,4.66
2022-12-31T05:10:01.673Z,4.64
2022-12-31T05:10:33.874Z,4.68
2022-12-31T05:11:06.174Z,4.76
2022-12-31T05:11:38.248Z,4.79
2022-12-31T05:12:10.092Z,4.81
2022-12-31T05:12:41.946Z,4.85
2022-12-31T05:13:14.218Z,4.79
2022-12-31T05:13:46.060Z,4.62
2022-12-31T05:14:17.971Z,4.63
2022-12-31T05:14:49.852Z,4.72
2022-12-31T05:15:21.711Z,4.77
2022-12-31T05:15:53.943Z,4.72
2022-12-31T05:16:27.255Z,4.66
2022-12-31T05:17:01.089Z,4.68
2022-12-31T05:17:33.041Z,4.76
2022-12-31T05:18:04.995Z,4.71
2022-12-31T05:18:37.080Z,4.70
2022-12-31T05:19:09.630Z,4.72
2022-12-31T05:19:41.652Z,4.73
2022-12-31T05:20:13.520Z,4.67
2022-12-31T05:20:46.287Z,4.63
2022-12-31T05:21:21.212Z,4.60
2022-12-31T05:22:12.097Z,4.59
2022-12-31T05:22:44.132Z,4.64
2022-12-31T05:23:17.746Z,4.70
2022-12-31T05:23:49.740Z,4.76
2022-12-31T05:24:21.641Z,4.79
2022-12-31T05:24:53.509Z,4.86
2022-12-31T05:25:25.422Z,4.90
2022-12-31T05:25:59.583Z,4.93
2022-12-31T05:26:31.836Z,4.90
2022-12-31T05:27:03.957Z,4.74
2022-12-31T05:27:37.832Z,4.77
2022-12-31T05:28:10.195Z,4.80
2022-12-31T05:28:42.169Z,4.76
2022-12-31T05:29:14.192Z,4.83
2022-12-31T05:29:46.021Z,4.81
2022-12-31T05:30:18.789Z,4.77
2022-12-31T05:30:51.265Z,4.81
2022-12-31T05:31:23.318Z,4.81
2022-12-31T05:31:55.503Z,4.87
2022-12-31T05:32:27.548Z,4.99
2022-12-31T05:32:59.435Z,4.93
2022-12-31T05:33:31.467Z,4.92
2022-12-31T05:34:03.326Z,4.90
2022-12-31T05:34:35.160Z,4.94
2022-12-31T05:35:07.706Z,4.93
2022-12-31T05:35:39.560Z,4.89
2022-12-31T05:36:11.475Z,4.89
2022-12-31T05:36:43.330Z,4.83
2022-12-31T05:37:15.461Z,4.85
2022-12-31T05:37:47.323Z,4.96
2022-12-31T05:38:19.147Z,4.89
2022-12-31T05:38:51.011Z,4.86
2022-12-31T05:39:22.886Z,4.86
2022-12-31T05:39:56.732Z,4.91
2022-12-31T05:40:28.993Z,5.03
2022-12-31T05:41:05.936Z,4.93
2022-12-31T05:41:37.749Z,4.83
2022-12-31T05:42:09.590Z,4.83
2022-12-31T05:42:41.744Z,4.86
2022-12-31T05:43:13.612Z,4.91
2022-12-31T05:43:45.445Z,4.88
2022-12-31T05:44:17.284Z,4.86
2022-12-31T05:44:49.199Z,4.85
2022-12-31T05:45:26.812Z,4.80
2022-12-31T05:46:03.371Z,4.74
2022-12-31T05:46:35.227Z,4.68
2022-12-31T05:47:07.081Z,4.61
2022-12-31T05:47:40.437Z,4.59
2022-12-31T05:48:12.611Z,4.56
2022-12-31T05:48:44.479Z,4.60
2022-12-31T05:49:16.338Z,4.60
2022-12-31T05:49:48.297Z,4.62
2022-12-31T05:50:20.193Z,4.62
2022-12-31T05:50:59.263Z,4.58
2022-12-31T05:51:31.142Z,4.58
2022-12-31T05:52:03.005Z,4.54
2022-12-31T05:52:34.890Z,4.57
2022-12-31T05:53:06.740Z,4.57
2022-12-31T05:53:38.885Z,4.64
2022-12-31T05:54:10.767Z,4.55
2022-12-31T05:54:42.672Z,4.53
2022-12-31T05:55:14.625Z,4.53
2022-12-31T05:55:47.808Z,4.50
2022-12-31T05:56:20.625Z,4.41
2022-12-31T05:56:52.643Z,4.38
2022-12-31T05:57:24.558Z,4.40
2022-12-31T05:57:56.749Z,4.45
2022-12-31T05:58:28.701Z,4.44
2022-12-31T05:59:00.869Z,4.44
2022-12-31T05:59:32.887Z,4.40
2022-12-31T06:00:07.113Z,4.35
2022-12-31T06:00:46.158Z,4.37
2022-12-31T06:01:18.427Z,4.40
2022-12-31T06:01:50.413Z,4.42
2022-12-31T06:02:23.008Z,4.45
2022-12-31T06:02:54.921Z,4.56
2022-12-31T06:03:26.894Z,4.59
2022-12-31T06:03:58.908Z,4.59
2022-12-31T06:04:30.865Z,4.51
2022-12-31T06:05:02.759Z,4.56
2022-12-31T06:05:34.680Z,4.60
2022-12-31T06:06:06.785Z,4.66
2022-12-31T06:06:38.999Z,4.72
2022-12-31T06:07:10.816Z,4.73
2022-12-31T06:07:42.732Z,4.75
2022-12-31T06:08:14.567Z,4.85
2022-12-31T06:08:50.595Z,4.82
2022-12-31T06:09:22.706Z,4.72
2022-12-31T06:09:54.578Z,4.63
2022-12-31T06:10:26.457Z,4.59
2022-12-31T06:10:58.390Z,4.54
2022-12-31T06:11:30.595Z,4.58
2022-12-31T06:12:02.879Z,4.61
2022-12-31T06:12:35.476Z,4.67
2022-12-31T06:13:08.488Z,4.70
2022-12-31T06:13:41.402Z,4.72
2022-12-31T06:14:13.665Z,4.68
2022-12-31T06:14:46.036Z,4.64
2022-12-31T06:15:18.060Z,4.67
2022-12-31T06:15:50.053Z,4.72
2022-12-31T06:16:22.033Z,4.75
2022-12-31T06:16:53.928Z,4.75
2022-12-31T06:17:26.093Z,4.72
2022-12-31T06:17:57.933Z,4.64
2022-12-31T06:18:29.790Z,4.53
2022-12-31T06:19:02.468Z,4.47
2022-12-31T06:19:34.434Z,4.45
2022-12-31T06:20:12.418Z,4.49
2022-12-31T06:20:45.038Z,4.51
2022-12-31T06:21:18.339Z,4.61
2022-12-31T06:21:50.749Z,4.68
2022-12-31T06:22:22.831Z,4.74
2022-12-31T06:22:54.942Z,4.80
2022-12-31T06:23:26.966Z,4.85
2022-12-31T06:23:59.027Z,4.85
2022-12-31T06:24:30.984Z,4.80
2022-12-31T06:25:03.069Z,4.77
2022-12-31T06:25:37.000Z,4.64
2022-12-31T06:26:09.174Z,4.64
2022-12-31T06:26:41.091Z,4.68
2022-12-31T06:27:12.964Z,4.72
2022-12-31T06:27:44.818Z,4.68
2022-12-31T06:28:20.421Z,4.66
2022-12-31T06:28:52.668Z,4.62
2022-12-31T06:29:24.584Z,4.55
2022-12-31T06:29:56.495Z,4.47
2022-12-31T06:30:28.401Z,4.45
2022-12-31T06:31:01.178Z,4.50
2022-12-31T06:31:33.324Z,4.48
2022-12-31T06:32:05.655Z,4.50
2022-12-31T06:32:37.566Z,4.49
2022-12-31T06:33:09.468Z,4.57
2022-12-31T06:33:42.079Z,4.59
2022-12-31T06:34:13.953Z,4.60
2022-12-31T06:34:45.832Z,4.60
2022-12-31T06:35:17.794Z,4.68
2022-12-31T06:35:49.669Z,4.65
2022-12-31T06:36:22.388Z,4.49
2022-12-31T06:36:54.276Z,4.46
2022-12-31T06:37:26.139Z,4.54
2022-12-31T06:37:58.033Z,4.59
2022-12-31T06:38:32.742Z,4.58
2022-12-31T06:39:05.222Z,4.62
2022-12-31T06:39:37.103Z,4.67
2022-12-31T06:40:09.629Z,4.60
2022-12-31T06:40:41.467Z,4.59
2022-12-31T06:41:15.771Z,4.57
2022-12-31T06:41:47.636Z,4.66
2022-12-31T06:42:19.499Z,4.75
2022-12-31T06:42:56.055Z,4.77
2022-12-31T06:43:32.189Z,4.83
2022-12-31T06:44:04.470Z,4.83
2022-12-31T06:44:36.304Z,4.84
2022-12-31T06:45:08.640Z,4.86
2022-12-31T06:45:40.577Z,4.78
2022-12-31T06:46:15.332Z,4.81
2022-12-31T06:46:47.375Z,4.85
2022-12-31T06:47:21.089Z,4.89
2022-12-31T06:47:53.047Z,4.89
2022-12-31T06:48:24.888Z,4.66
2022-12-31T06:48:56.814Z,4.51
2022-12-31T06:49:29.133Z,4.47
2022-12-31T06:50:01.009Z,4.61
2022-12-31T06:50:33.003Z,4.63
2022-12-31T06:51:09.550Z,4.57
2022-12-31T06:51:46.205Z,4.50
2022-12-31T06:52:18.151Z,4.56
2022-12-31T06:52:50.001Z,4.67
2022-12-31T06:53:21.983Z,4.73
2022-12-31T06:53:53.943Z,4.72
2022-12-31T06:54:25.775Z,4.71
2022-12-31T06:54:58.425Z,4.76
2022-12-31T06:55:30.922Z,4.85
2022-12-31T06:56:07.251Z,4.89
2022-12-31T06:56:39.741Z,4.92
2022-12-31T06:57:12.216Z,4.93
2022-12-31T06:57:47.738Z,4.92
2022-12-31T06:58:19.981Z,4.90
2022-12-31T06:58:52.613Z,4.90
2022-12-31T06:59:27.983Z,4.88
2022-12-31T07:00:00.415Z,4.93
2022-12-31T07:00:32.600Z,4.99
2022-12-31T07:01:29.799Z,4.96
2022-12-31T07:02:01.910Z,4.93
2022-12-31T07:02:45.781Z,4.85
2022-12-31T07:03:44.828Z,4.79
2022-12-31T07:04:47.569Z,4.59
2022-12-31T07:05:22.682Z,4.61
2022-12-31T07:06:13.666Z,4.66
2022-12-31T07:07:14.001Z,4.53
2022-12-31T07:07:51.676Z,4.63
2022-12-31T07:08:48.521Z,4.73
2022-12-31T07:09:44.469Z,4.70
2022-12-31T07:10:41.092Z,4.47
2022-12-31T07:11:26.530Z,4.48
2022-12-31T07:12:15.311Z,4.47
2022-12-31T07:13:14.382Z,4.64
2022-12-31T07:14:03.163Z,4.74
2022-12-31T07:14:34.966Z,4.82
2022-12-31T07:15:07.098Z,4.85
2022-12-31T07:15:47.957Z,4.91
2022-12-31T07:16:28.792Z,4.95
2022-12-31T07:17:20.887Z,4.97
2022-12-31T07:18:17.528Z,5.04
2022-12-31T07:18:57.649Z,4.99
2022-12-31T07:19:29.476Z,5.07
2022-12-31T07:20:09.985Z,4.96
2022-12-31T07:20:42.264Z,4.90
2022-12-31T07:21:18.274Z,4.92
2022-12-31T07:21:53.545Z,4.95
2022-12-31T07:22:25.643Z,4.92
2022-12-31T07:22:57.815Z,4.86
2022-12-31T07:23:29.848Z,4.83
2022-12-31T07:24:02.067Z,4.83
2022-12-31T07:24:34.211Z,4.69
2022-12-31T07:25:07.224Z,4.61
2022-12-31T07:25:44.513Z,4.63
2022-12-31T07:26:30.857Z,4.59
2022-12-31T07:27:39.937Z,4.64
2022-12-31T07:28:34.386Z,4.67
2022-12-31T07:29:16.969Z,4.75
2022-12-31T07:30:11.853Z,4.86
2022-12-31T07:30:56.779Z,4.92
2022-12-31T07:31:47.599Z,4.98
2022-12-31T07:32:32.062Z,4.93
2022-12-31T07:33:07.435Z,4.80
2022-12-31T07:33:53.052Z,4.78
2022-12-31T07:34:38.755Z,4.86
2022-12-31T07:35:47.838Z,4.86
2022-12-31T07:36:58.215Z,4.72
2022-12-31T07:37:44.407Z,4.87
2022-12-31T07:38:38.011Z,4.87
2022-12-31T07:39:22.605Z,4.92
2022-12-31T07:40:03.562Z,4.87
2022-12-31T07:40:35.398Z,4.78
2022-12-31T07:41:16.490Z,4.71
2022-12-31T07:42:07.811Z,4.78
2022-12-31T07:42:50.701Z,4.89
2022-12-31T07:43:28.285Z,4.88
2022-12-31T07:44:14.468Z,4.89
2022-12-31T07:45:01.060Z,4.89
2022-12-31T07:45:44.687Z,4.74
2022-12-31T07:46:28.681Z,4.77
2022-12-31T07:47:03.468Z,4.86
2022-12-31T07:47:35.577Z,5.01
2022-12-31T07:48:28.064Z,5.12
2022-12-31T07:49:00.178Z,5.24
2022-12-31T07:49:33.850Z,5.26
2022-12-31T07:50:14.989Z,5.22
2022-12-31T07:50:47.461Z,5.27